Esserville, Virginia
Current Conditions -  °F | °C
As of 4:15 PM on Monday 24 Nov 2014 (Local Time) from KLNP Reporting Station
Scattered Clouds Scattered Clouds  
Wind Chill: 63°   Ceiling: Unl
Heat Index: 63°   Visibility: 10mi
Dew Point: 37°   Wind: 21mph
Humidity: 39%   Direction: 230°SW
Pressure: 29.76"   Gusts: 30mph
Location:  36.9212°N, 82.5945°W
Report Text: KLNP 242115Z AUTO 23018G26KT 10SM SCT055 17/03 A2976 RMK AO2
Loading
Personal Weather Stations






























Interactive Weather Map New forecast layout! Learn more

10-Day Weather Forecast

Advertisements
Track Severe Weather on mobile